Map

Track Data

SID SEASON NUMBER BASIN SUBBASIN NAME ISO_TIME NATURE LAT LON WMO_WIND WMO_PRES WMO_AGENCY TRACK_TYPE DIST2LAND LANDFALL IFLAG USA_AGENCY USA_ATCF_ID USA_LAT USA_LON USA_RECORD USA_STATUS USA_WIND USA_PRES USA_SSHS USA_R34_NE USA_R34_SE USA_R34_SW USA_R34_NW USA_R50_NE USA_R50_SE USA_R50_SW USA_R50_NW USA_R64_NE USA_R64_SE USA_R64_SW USA_R64_NW USA_POCI USA_ROCI USA_RMW USA_EYE TOKYO_LAT TOKYO_LON TOKYO_GRADE TOKYO_WIND TOKYO_PRES TOKYO_R50_DIR TOKYO_R50_LONG TOKYO_R50_SHORT TOKYO_R30_DIR TOKYO_R30_LONG TOKYO_R30_SHORT TOKYO_LAND CMA_LAT CMA_LON CMA_CAT CMA_WIND CMA_PRES HKO_LAT HKO_LON HKO_CAT HKO_WIND HKO_PRES NEWDELHI_LAT NEWDELHI_LON NEWDELHI_GRADE NEWDELHI_WIND NEWDELHI_PRES NEWDELHI_CI NEWDELHI_DP NEWDELHI_POCI REUNION_LAT REUNION_LON REUNION_TYPE REUNION_WIND REUNION_PRES REUNION_TNUM REUNION_CI REUNION_RMW REUNION_R34_NE REUNION_R34_SE REUNION_R34_SW REUNION_R34_NW REUNION_R50_NE REUNION_R50_SE REUNION_R50_SW REUNION_R50_NW REUNION_R64_NE REUNION_R64_SE REUNION_R64_SW REUNION_R64_NW BOM_LAT BOM_LON BOM_TYPE BOM_WIND BOM_PRES BOM_TNUM BOM_CI BOM_RMW BOM_R34_NE BOM_R34_SE BOM_R34_SW BOM_R34_NW BOM_R50_NE BOM_R50_SE BOM_R50_SW BOM_R50_NW BOM_R64_NE BOM_R64_SE BOM_R64_SW BOM_R64_NW BOM_ROCI BOM_POCI BOM_EYE BOM_POS_METHOD BOM_PRES_METHOD NADI_LAT NADI_LON NADI_CAT NADI_WIND NADI_PRES WELLINGTON_LAT WELLINGTON_LON WELLINGTON_WIND WELLINGTON_PRES DS824_LAT DS824_LON DS824_STAGE DS824_WIND DS824_PRES TD9636_LAT TD9636_LON TD9636_STAGE TD9636_WIND TD9636_PRES TD9635_LAT TD9635_LON TD9635_WIND TD9635_PRES TD9635_ROCI NEUMANN_LAT NEUMANN_LON NEUMANN_CLASS NEUMANN_WIND NEUMANN_PRES MLC_LAT MLC_LON MLC_CLASS MLC_WIND MLC_PRES USA_GUST BOM_GUST BOM_GUST_PER REUNION_GUST REUNION_GUST_PER USA_SEAHGT USA_SEARAD_NE USA_SEARAD_SE USA_SEARAD_SW USA_SEARAD_NW STORM_SPEED STORM_DIR
1955023S10168 1955 7 SP MM NOT_NAMED 1955-01-22 12:00:00 TS -10.0000 168.000 main 547 543 O________OO___ jtwc_sh SH101955 -10.0000 168.000 -1 -10.0000 168.000 TC -10.0000 168.000 2 6 107
1955023S10168 1955 7 SP MM NOT_NAMED 1955-01-22 15:00:00 TS -10.0936 168.302 main 547 544 P________PP___ SH101955 -10.0925 168.297 -1 -10.0925 168.297 TC -10.0956 168.312 2 6 109
1955023S10168 1955 7 SP MM NOT_NAMED 1955-01-22 18:00:00 TS -10.2009 168.607 main 548 542 O________OP___ jtwc_sh SH101955 -10.2000 168.600 -1 -10.2000 168.600 TC -10.2028 168.620 2 6 112
1955023S10168 1955 7 SP MM NOT_NAMED 1955-01-22 21:00:00 TS -10.3345 168.911 main 552 542 P________PP___ SH101955 -10.3350 168.908 -1 -10.3350 168.908 TC -10.3336 168.918 2 7 117
1955023S10168 1955 7 SP MM NOT_NAMED 1955-01-23 00:00:00 TS -10.5000 169.200 main 548 541 O________OO___ jtwc_sh SH101955 -10.5000 169.200 -1 -10.5000 169.200 TC -10.5000 169.200 2 7 124
1955023S10168 1955 7 SP MM NOT_NAMED 1955-01-23 03:00:00 TS -10.6927 169.460 main 547 537 P________PP___ SH101955 -10.6850 169.458 -1 -10.6850 169.458 TC -10.7083 169.464 2 6 130
1955023S10168 1955 7 SP MM NOT_NAMED 1955-01-23 06:00:00 TS -10.9141 169.705 main 538 522 O________OP___ jtwc_sh SH101955 -10.9000 169.700 -1 -10.9000 169.700 TC -10.9423 169.715 2 7 134
1955023S10168 1955 7 SP MM NOT_NAMED 1955-01-23 09:00:00 TS -11.1651 169.953 main 528 517 P________PP___ SH101955 -11.1575 169.950 -1 -11.1575 169.950 TC -11.1802 169.958 2 7 135
1955023S10168 1955 7 SP MM NOT_NAMED 1955-01-23 12:00:00 TS -11.4000 170.200 main 524 523 O________OO___ jtwc_sh SH101955 -11.4000 170.200 -1 -11.4000 170.200 TC -11.4000 170.200 2 6 128
1955023S10168 1955 7 SP MM NOT_NAMED 1955-01-23 15:00:00 TS -11.5550 170.468 main 529 529 P________PP___ SH101955 -11.5650 170.450 -1 -11.5650 170.450 TC -11.5351 170.503 2 6 119
1955023S10168 1955 7 SP MM NOT_NAMED 1955-01-23 18:00:00 TS -11.6851 170.732 main 536 536 O________OP___ jtwc_sh SH101955 -11.7000 170.700 -1 -11.7000 170.700 TC -11.6552 170.797 2 6 116
1955023S10168 1955 7 SP MM NOT_NAMED 1955-01-23 21:00:00 TS -11.8126 171.001 main 553 553 P________PP___ SH101955 -11.8200 170.980 -1 -11.8200 170.980 TC -11.7976 171.043 2 6 125
1955023S10168 1955 7 SP MM NOT_NAMED 1955-01-24 00:00:00 TS -12.0000 171.200 main 556 545 O________OO___ jtwc_sh SH101955 -12.0000 171.200 -1 -12.0000 171.200 TC -12.0000 171.200 2 6 151
1955023S10168 1955 7 SP MM NOT_NAMED 1955-01-24 03:00:00 TS -12.3225 171.291 main 545 521 P________PP___ SH101955 -12.3124 171.317 -1 -12.3124 171.317 TC -12.3426 171.239 2 7 175
1955023S10168 1955 7 SP MM NOT_NAMED 1955-01-24 06:00:00 TS -12.7141 171.262 main 521 481 O________OP___ jtwc_sh SH101955 -12.7000 171.300 -1 -12.7000 171.300 TC -12.7423 171.185 2 8 192
1955023S10168 1955 7 SP MM NOT_NAMED 1955-01-24 09:00:00 TS -13.1353 171.113 main 481 442 P________PP___ SH101955 -13.1300 171.138 -1 -13.1300 171.138 TC -13.1458 171.064 2 9 204
1955023S10168 1955 7 SP MM NOT_NAMED 1955-01-24 12:00:00 TS -13.5000 170.900 main 442 414 O________OO___ jtwc_sh SH101955 -13.5000 170.900 -1 -13.5000 170.900 TC -13.5000 170.900 2 7 216
1955023S10168 1955 7 SP MM NOT_NAMED 1955-01-24 15:00:00 TS -13.6758 170.716 main 414 390 P________PP___ SH101955 -13.6800 170.700 -1 -13.6800 170.700 TC -13.6675 170.747 2 5 231
1955023S10168 1955 7 SP MM NOT_NAMED 1955-01-24 18:00:00 TS -13.7967 170.520 main 390 366 O________OP___ jtwc_sh SH101955 -13.8000 170.500 -1 -13.8000 170.500 TC -13.7900 170.559 2 5 235
1955023S10168 1955 7 SP MM NOT_NAMED 1955-01-24 21:00:00 TS -13.9408 170.323 main 366 335 P________PP___ SH101955 -13.9399 170.315 -1 -13.9399 170.315 TC -13.9425 170.341 2 6 225
1955023S10168 1955 7 SP MM NOT_NAMED 1955-01-25 00:00:00 TS -14.2000 170.100 main 335 279 O________OO___ jtwc_sh SH101955 -14.2000 170.100 -1 -14.2000 170.100 TC -14.2000 170.100 2 9 215
1955023S10168 1955 7 SP MM NOT_NAMED 1955-01-25 03:00:00 TS -14.6869 169.789 main 279 213 P________PP___ SH101955 -14.6901 169.808 -1 -14.6901 169.808 TC -14.6806 169.751 2 13 209
1955023S10168 1955 7 SP MM NOT_NAMED 1955-01-25 06:00:00 TS -15.2893 169.465 main 213 156 O________OP___ jtwc_sh SH101955 -15.3000 169.500 -1 -15.3000 169.500 TC -15.2679 169.396 2 14 206
1955023S10168 1955 7 SP MM NOT_NAMED 1955-01-25 09:00:00 TS -15.9037 169.166 main 156 127 P________PP___ SH101955 -15.9075 169.190 -1 -15.9075 169.190 TC -15.8961 169.117 2 13 200
1955023S10168 1955 7 SP MM NOT_NAMED 1955-01-25 12:00:00 TS -16.5000 169.000 main 127 127 O________OO___ jtwc_sh SH101955 -16.5000 169.000 -1 -16.5000 169.000 TC -16.5000 169.000 2 11 188
1955023S10168 1955 7 SP MM NOT_NAMED 1955-01-25 15:00:00 TS -17.0337 169.013 main 135 135 P________PP___ SH101955 -17.0297 168.980 -1 -17.0297 168.980 TC -17.0416 169.078 2 10 167
1955023S10168 1955 7 SP MM NOT_NAMED 1955-01-25 18:00:00 TS -17.5136 169.244 main 179 179 O________OP___ jtwc_sh SH101955 -17.5000 169.200 -1 -17.5000 169.200 TC -17.5407 169.333 2 11 145
1955023S10168 1955 7 SP MM NOT_NAMED 1955-01-25 21:00:00 TS -17.9531 169.684 main 255 255 P________PP___ SH101955 -17.9449 169.652 -1 -17.9449 169.652 TC -17.9695 169.747 2 13 128
1955023S10168 1955 7 SP MM NOT_NAMED 1955-01-26 00:00:00 TS -18.3000 170.300 main 326 326 O________OO___ jtwc_sh SH101955 -18.3000 170.300 -1 -18.3000 170.300 TC -18.3000 170.300 2 14 116
1955023S10168 1955 7 SP MM NOT_NAMED 1955-01-26 03:00:00 TS -18.5582 170.993 main 406 406 P________PP___ SH101955 -18.5599 171.013 -1 -18.5599 171.013 TC -18.5546 170.953 2 15 106
1955023S10168 1955 7 SP MM NOT_NAMED 1955-01-26 06:00:00 TS -18.7014 171.776 main 484 484 O________OP___ jtwc_sh SH101955 -18.7000 171.800 -1 -18.7000 171.800 TC -18.7042 171.729 2 15 98
1955023S10168 1955 7 SP MM NOT_NAMED 1955-01-26 09:00:00 TS -18.7621 172.593 main 493 408 P________PP___ SH101955 -18.7674 172.607 -1 -18.7674 172.607 TC -18.7513 172.565 2 15 90
1955023S10168 1955 7 SP MM NOT_NAMED 1955-01-26 12:00:00 TS -18.7000 173.400 main 408 332 O________OO___ jtwc_sh SH101955 -18.7000 173.400 -1 -18.7000 173.400 TC -18.7000 173.400 2 15 79
1955023S10168 1955 7 SP MM NOT_NAMED 1955-01-26 15:00:00 TS -18.4854 174.109 main 332 254 P________PP___ SH101955 -18.4795 174.108 -1 -18.4795 174.108 TC -18.4974 174.110 2 14 70
1955023S10168 1955 7 SP MM NOT_NAMED 1955-01-26 18:00:00 TS -18.2057 174.803 main 254 179 O________OP___ jtwc_sh SH101955 -18.2000 174.800 -1 -18.2000 174.800 TC -18.2171 174.810 2 15 68
1955023S10168 1955 7 SP MM NOT_NAMED 1955-01-26 21:00:00 TS -17.9442 175.523 main 180 97 P________PP___ SH101955 -17.9395 175.520 -1 -17.9395 175.520 TC -17.9534 175.529 2 15 74
1955023S10168 1955 7 SP MM NOT_NAMED 1955-01-27 00:00:00 TS -17.8000 176.300 main 97 15 O________OO___ jtwc_sh SH101955 -17.8000 176.300 -1 -17.8000 176.300 TC -17.8000 176.300 2 16 88
1955023S10168 1955 7 SP MM NOT_NAMED 1955-01-27 03:00:00 TS -17.8759 177.187 main 10 0 P________PP___ SH101955 -17.8823 177.170 -1 -17.8823 177.170 TC -17.8632 177.222 2 18 99
1955023S10168 1955 7 SP MM NOT_NAMED 1955-01-27 06:00:00 TS -18.0817 178.131 main 0 0 O________OP___ jtwc_sh SH101955 -18.1000 178.100 -1 -18.1000 178.100 TC -18.0450 178.192 2 19 104
1955023S10168 1955 7 SP MM NOT_NAMED 1955-01-27 09:00:00 TS -18.3198 179.105 main 47 47 P________PP___ SH101955 -18.3277 179.087 -1 -18.3277 179.087 TC -18.3040 179.141 2 19 106
1955023S10168 1955 7 SP MM NOT_NAMED 1955-01-27 12:00:00 TS -18.6000 180.000 main 148 148 O________OO___ jtwc_sh SH101955 -18.6000 180.000 -1 -18.6000 180.000 TC -18.6000 180.000 2 16 111
1955023S10168 1955 7 SP MM NOT_NAMED 1955-01-27 15:00:00 TS -18.8949 180.717 main 229 229 P________PP___ SH101955 -18.8919 -179.282 -1 -18.8919 -179.282 TC -18.9008 -179.284 2 14 116
1955023S10168 1955 7 SP MM NOT_NAMED 1955-01-27 18:00:00 TS -19.2003 181.303 main 300 300 O________OP___ jtwc_sh SH101955 -19.2000 -178.700 -1 -19.2000 181.300 TC -19.2009 -178.690 2 12 120
1955023S10168 1955 7 SP MM NOT_NAMED 1955-01-27 21:00:00 TS -19.5022 181.818 main 361 361 P________PP___ SH101955 -19.5029 -178.185 -1 -19.5029 -178.185 TC -19.5007 -178.175 2 11 123
1955023S10168 1955 7 SP MM NOT_NAMED 1955-01-28 00:00:00 TS -19.8000 182.300 main 420 O________OO___ jtwc_sh SH101955 -19.8000 -177.700 -1 -19.8000 182.300 TC -19.8000 -177.700 2 11 123

Digital Typhoon Data and Search

About IBTrACS Database

This database is a web-friendly format of International Best Track Archive for Climate Stewardship (IBTrACS), a global best track data archive curated by NOAA dating back to 1842.

Updated: 2021-10-27